createdAt,value
2022-07-30T00:02:00.707Z,19.20
2022-07-30T00:04:32.399Z,19.20
2022-07-30T00:07:04.108Z,19.10
2022-07-30T00:09:36.318Z,19.00
2022-07-30T00:12:06.915Z,19.00
2022-07-30T00:14:37.588Z,19.00
2022-07-30T00:17:10.481Z,19.00
2022-07-30T00:19:40.403Z,18.90
2022-07-30T00:22:10.477Z,18.90
2022-07-30T00:24:40.382Z,18.80
2022-07-30T00:27:15.969Z,18.80
2022-07-30T00:29:47.004Z,18.70
2022-07-30T00:32:19.488Z,18.70
2022-07-30T00:34:49.486Z,18.70
2022-07-30T00:37:19.403Z,18.70
2022-07-30T00:40:01.256Z,18.70
2022-07-30T00:42:42.780Z,18.70
2022-07-30T00:45:14.197Z,18.70
2022-07-30T00:47:47.484Z,18.60
2022-07-30T00:50:18.812Z,18.50
2022-07-30T00:52:48.955Z,18.40
2022-07-30T00:55:18.903Z,18.50
2022-07-30T00:57:49.134Z,18.50
2022-07-30T01:00:21.882Z,18.50
2022-07-30T01:02:57.330Z,18.40
2022-07-30T01:05:27.347Z,18.40
2022-07-30T01:08:01.271Z,18.40
2022-07-30T01:10:31.457Z,18.30
2022-07-30T01:13:02.088Z,18.30
2022-07-30T01:15:32.563Z,18.30
2022-07-30T01:18:08.998Z,18.30
2022-07-30T01:20:43.322Z,18.30
2022-07-30T01:23:25.640Z,18.40
2022-07-30T01:26:01.291Z,18.30
2022-07-30T01:28:36.148Z,18.30
2022-07-30T01:31:06.864Z,18.30
2022-07-30T01:33:40.103Z,18.20
2022-07-30T01:36:11.901Z,18.30
2022-07-30T01:38:44.050Z,18.20
2022-07-30T01:41:17.566Z,18.20
2022-07-30T01:43:49.604Z,18.30
2022-07-30T01:46:21.283Z,18.30
2022-07-30T01:48:51.861Z,18.30
2022-07-30T01:51:22.719Z,18.30
2022-07-30T01:53:54.257Z,18.30
2022-07-30T01:56:28.408Z,18.30
2022-07-30T01:59:00.286Z,18.30
2022-07-30T02:01:30.274Z,18.30
2022-07-30T02:04:02.478Z,18.30
2022-07-30T02:06:37.673Z,18.30
2022-07-30T02:09:11.296Z,18.30
2022-07-30T02:12:00.398Z,18.20
2022-07-30T02:14:35.105Z,18.10
2022-07-30T02:17:07.462Z,18.20
2022-07-30T02:19:51.666Z,18.20
2022-07-30T02:22:23.772Z,18.20
2022-07-30T02:24:54.807Z,18.20
2022-07-30T02:27:30.741Z,18.20
2022-07-30T02:30:03.654Z,18.10
2022-07-30T02:32:38.128Z,18.10
2022-07-30T02:35:11.326Z,18.20
2022-07-30T02:37:43.588Z,18.20
2022-07-30T02:40:18.409Z,18.30
2022-07-30T02:42:52.648Z,18.20
2022-07-30T02:45:24.541Z,18.10
2022-07-30T02:47:57.313Z,18.20
2022-07-30T02:50:29.810Z,18.20
2022-07-30T02:53:01.651Z,18.20
2022-07-30T02:55:35.489Z,18.30
2022-07-30T02:58:10.154Z,18.30
2022-07-30T03:00:41.486Z,18.20
2022-07-30T03:03:12.821Z,18.20
2022-07-30T03:05:43.993Z,18.20
2022-07-30T03:08:19.306Z,18.10
2022-07-30T03:10:51.580Z,18.10
2022-07-30T03:13:24.538Z,18.20
2022-07-30T03:15:55.571Z,18.10
2022-07-30T03:18:31.008Z,18.10
2022-07-30T03:21:02.730Z,18.10
2022-07-30T03:23:37.709Z,18.10
2022-07-30T03:26:10.551Z,18.10
2022-07-30T03:28:43.939Z,18.10
2022-07-30T03:31:14.252Z,18.10
2022-07-30T03:33:46.006Z,18.00
2022-07-30T03:36:18.094Z,18.10
2022-07-30T03:38:48.801Z,18.10
2022-07-30T03:41:19.137Z,18.00
2022-07-30T03:43:52.710Z,18.00
2022-07-30T03:46:23.640Z,18.10
2022-07-30T03:48:55.318Z,18.10
2022-07-30T03:51:25.603Z,18.10
2022-07-30T03:54:03.469Z,18.20
2022-07-30T03:56:33.489Z,18.20
2022-07-30T03:59:06.634Z,18.20
2022-07-30T04:01:36.733Z,18.20
2022-07-30T04:04:10.603Z,18.30
2022-07-30T04:06:43.049Z,18.30
2022-07-30T04:09:15.220Z,18.30
2022-07-30T04:11:45.289Z,18.30
2022-07-30T04:14:17.730Z,18.40
2022-07-30T04:16:52.454Z,18.50
2022-07-30T04:19:28.062Z,19.10
2022-07-30T04:21:59.687Z,19.50
2022-07-30T04:24:30.778Z,20.00
2022-07-30T04:27:02.339Z,20.10
2022-07-30T04:29:35.274Z,20.30
2022-07-30T04:32:05.442Z,20.90
2022-07-30T04:34:36.192Z,21.10
2022-07-30T04:37:06.560Z,21.50
2022-07-30T04:39:36.410Z,22.00
2022-07-30T04:42:06.456Z,22.00
2022-07-30T04:44:39.010Z,22.20
2022-07-30T04:47:09.119Z,22.20
2022-07-30T04:49:39.517Z,22.20
2022-07-30T04:52:10.995Z,23.00
2022-07-30T04:54:43.630Z,23.00
2022-07-30T04:57:15.709Z,22.90
2022-07-30T04:59:48.392Z,22.90
2022-07-30T05:02:20.487Z,22.70
2022-07-30T05:04:51.657Z,23.40
2022-07-30T05:07:22.609Z,23.60
2022-07-30T05:09:52.644Z,23.80
2022-07-30T05:12:22.507Z,24.10
2022-07-30T05:14:54.914Z,23.40
2022-07-30T05:17:24.786Z,24.10
2022-07-30T05:19:54.632Z,24.40
2022-07-30T05:22:25.626Z,25.20
2022-07-30T05:24:55.458Z,25.20
2022-07-30T05:27:25.388Z,25.50
2022-07-30T05:29:57.906Z,25.80
2022-07-30T05:32:30.762Z,24.60
2022-07-30T05:35:02.147Z,23.40
2022-07-30T05:37:33.129Z,23.80
2022-07-30T05:40:03.728Z,25.00
2022-07-30T05:42:33.771Z,24.20
2022-07-30T05:45:06.773Z,25.40
2022-07-30T05:47:36.611Z,25.90
2022-07-30T05:50:07.146Z,24.00
2022-07-30T05:52:37.369Z,23.70
2022-07-30T05:55:08.076Z,24.70
2022-07-30T05:57:38.600Z,25.70
2022-07-30T06:00:13.267Z,25.70
2022-07-30T06:02:43.361Z,23.40
2022-07-30T06:05:13.211Z,22.10
2022-07-30T06:07:43.220Z,22.10
2022-07-30T06:10:13.109Z,22.00
2022-07-30T06:12:43.319Z,21.80
2022-07-30T06:15:17.828Z,21.90
2022-07-30T06:18:02.101Z,21.30
2022-07-30T06:20:34.842Z,21.70
2022-07-30T06:23:04.686Z,22.20
2022-07-30T06:25:34.852Z,22.60
2022-07-30T06:28:27.421Z,21.80
2022-07-30T06:30:57.292Z,22.00
2022-07-30T06:33:27.323Z,21.70
2022-07-30T06:35:57.171Z,22.30
2022-07-30T06:38:27.202Z,23.30
2022-07-30T06:41:02.022Z,23.00
2022-07-30T06:43:33.131Z,23.10
2022-07-30T06:46:05.666Z,22.40
2022-07-30T06:48:36.945Z,21.60
2022-07-30T06:51:07.081Z,22.10
2022-07-30T06:53:42.846Z,22.00
2022-07-30T06:56:12.880Z,22.10
2022-07-30T06:58:44.447Z,22.30
2022-07-30T07:01:17.136Z,22.50
2022-07-30T07:03:47.066Z,22.50
2022-07-30T07:06:16.946Z,22.70
2022-07-30T07:08:46.744Z,22.60
2022-07-30T07:11:16.582Z,22.50
2022-07-30T07:13:46.562Z,22.50
2022-07-30T07:16:21.702Z,23.20
2022-07-30T07:18:52.269Z,23.10
2022-07-30T07:21:22.245Z,22.60
2022-07-30T07:23:54.854Z,23.00
2022-07-30T07:26:24.865Z,23.40
2022-07-30T07:28:54.711Z,23.10
2022-07-30T07:32:06.003Z,23.20
2022-07-30T07:34:18.266Z,23.30
2022-07-30T07:36:48.060Z,23.10
2022-07-30T07:39:17.993Z,23.40
2022-07-30T07:41:48.761Z,23.20
2022-07-30T07:44:19.518Z,23.20
2022-07-30T07:46:51.973Z,23.60
2022-07-30T07:49:21.843Z,23.60
2022-07-30T07:51:51.959Z,23.50
2022-07-30T07:54:23.166Z,23.10
2022-07-30T07:56:56.091Z,23.10
2022-07-30T07:59:35.998Z,23.70
2022-07-30T08:02:13.025Z,23.40
2022-07-30T08:04:42.932Z,23.20
2022-07-30T08:07:12.815Z,23.70
2022-07-30T08:09:44.607Z,23.50
2022-07-30T08:12:14.979Z,23.50
2022-07-30T08:14:44.891Z,23.80
2022-07-30T08:17:17.503Z,23.90
2022-07-30T08:19:47.417Z,23.60
2022-07-30T08:22:17.339Z,23.50
2022-07-30T08:24:50.707Z,24.00
2022-07-30T08:27:21.013Z,23.50
2022-07-30T08:29:50.859Z,23.70
2022-07-30T08:32:23.627Z,23.80
2022-07-30T08:34:53.464Z,24.50
2022-07-30T08:37:23.498Z,24.30
2022-07-30T08:39:53.370Z,24.60
2022-07-30T08:42:23.749Z,24.40
2022-07-30T08:44:56.291Z,24.70
2022-07-30T08:47:35.279Z,24.60
2022-07-30T08:50:07.207Z,24.70
2022-07-30T08:52:39.708Z,24.60
2022-07-30T08:55:11.098Z,24.30
2022-07-30T08:57:41.083Z,24.50
2022-07-30T09:00:12.411Z,25.30
2022-07-30T09:02:45.296Z,24.80
2022-07-30T09:05:15.868Z,25.40
2022-07-30T09:07:45.702Z,25.50
2022-07-30T09:10:17.437Z,25.00
2022-07-30T09:12:48.691Z,25.60
2022-07-30T09:15:20.372Z,25.40
2022-07-30T09:17:58.131Z,24.60
2022-07-30T09:20:30.167Z,25.00
2022-07-30T09:23:01.527Z,25.50
2022-07-30T09:25:42.643Z,25.40
2022-07-30T09:28:15.795Z,25.10
2022-07-30T09:30:48.723Z,24.90
2022-07-30T09:33:35.696Z,25.10
2022-07-30T09:36:09.577Z,25.40
2022-07-30T09:38:47.696Z,26.20
2022-07-30T09:41:37.657Z,25.60
2022-07-30T09:44:08.912Z,25.70
2022-07-30T09:46:47.730Z,25.70
2022-07-30T09:49:22.065Z,26.00
2022-07-30T09:51:54.613Z,26.20
2022-07-30T09:54:27.003Z,25.80
2022-07-30T09:57:25.467Z,26.40
2022-07-30T09:59:58.051Z,25.50
2022-07-30T10:02:34.351Z,25.00
2022-07-30T10:05:19.279Z,25.50
2022-07-30T10:07:54.851Z,25.80
2022-07-30T10:10:27.237Z,25.10
2022-07-30T10:13:01.162Z,25.50
2022-07-30T10:15:36.290Z,25.60
2022-07-30T10:18:08.405Z,26.10
2022-07-30T10:20:41.297Z,26.40
2022-07-30T10:23:15.525Z,25.50
2022-07-30T10:25:55.082Z,25.80
2022-07-30T10:28:26.318Z,25.80
2022-07-30T10:30:58.191Z,26.00
2022-07-30T10:33:36.373Z,26.20
2022-07-30T10:36:14.375Z,26.80
2022-07-30T10:38:52.532Z,27.00
2022-07-30T10:41:43.342Z,26.20
2022-07-30T10:44:36.652Z,26.30
2022-07-30T10:47:10.568Z,26.30
2022-07-30T10:49:43.538Z,26.20
2022-07-30T10:52:16.244Z,26.60
2022-07-30T10:54:47.468Z,27.20
2022-07-30T10:57:22.997Z,26.40
2022-07-30T11:00:27.392Z,26.70
2022-07-30T11:03:40.239Z,26.70
2022-07-30T11:06:30.907Z,25.30
2022-07-30T11:09:03.524Z,25.40
2022-07-30T11:12:01.921Z,25.90
2022-07-30T11:15:06.820Z,26.10
2022-07-30T11:18:12.795Z,25.40
2022-07-30T11:20:48.356Z,26.30
2022-07-30T11:23:49.543Z,26.30
2022-07-30T11:27:03.402Z,26.50
2022-07-30T11:29:50.555Z,26.40
2022-07-30T11:32:28.161Z,26.60
2022-07-30T11:35:15.932Z,26.80
2022-07-30T11:38:07.252Z,27.20
2022-07-30T11:40:40.010Z,27.60
2022-07-30T11:43:36.046Z,27.00
2022-07-30T11:46:16.257Z,26.90
2022-07-30T11:48:58.467Z,26.80
2022-07-30T11:51:29.629Z,27.70
2022-07-30T11:54:05.917Z,27.70
2022-07-30T11:56:36.924Z,27.40
2022-07-30T11:59:08.923Z,27.40
2022-07-30T12:01:41.804Z,27.80
2022-07-30T12:04:11.768Z,26.60
2022-07-30T12:06:47.996Z,27.30
2022-07-30T12:09:28.830Z,27.60
2022-07-30T12:12:00.984Z,27.60
2022-07-30T12:14:39.959Z,27.60
2022-07-30T12:17:15.016Z,28.00
2022-07-30T12:19:48.362Z,27.70
2022-07-30T12:22:19.715Z,27.80
2022-07-30T12:24:49.893Z,28.00
2022-07-30T12:27:20.669Z,28.70
2022-07-30T12:29:50.555Z,27.90
2022-07-30T12:32:22.994Z,28.30
2022-07-30T12:34:57.517Z,28.40
2022-07-30T12:37:27.462Z,28.50
2022-07-30T12:40:15.018Z,28.10
2022-07-30T12:42:53.289Z,27.70
2022-07-30T12:45:30.555Z,28.40
2022-07-30T12:48:23.164Z,29.00
2022-07-30T12:51:07.209Z,27.70
2022-07-30T12:53:38.448Z,28.00
2022-07-30T12:56:18.670Z,28.90
2022-07-30T12:58:48.989Z,28.40
2022-07-30T13:01:20.568Z,28.50
2022-07-30T13:04:07.419Z,28.90
2022-07-30T13:06:38.083Z,28.80
2022-07-30T13:09:08.492Z,28.60
2022-07-30T13:11:49.068Z,28.60
2022-07-30T13:14:19.783Z,28.10
2022-07-30T13:17:04.305Z,28.50
2022-07-30T13:19:37.246Z,28.50
2022-07-30T13:22:07.193Z,29.20
2022-07-30T13:24:37.056Z,28.30
2022-07-30T13:27:07.468Z,28.60
2022-07-30T13:29:37.597Z,28.90
2022-07-30T13:32:08.045Z,29.10
2022-07-30T13:34:42.046Z,28.40
2022-07-30T13:37:11.924Z,28.10
2022-07-30T13:39:44.771Z,28.20
2022-07-30T13:42:14.862Z,28.50
2022-07-30T13:44:44.719Z,28.70
2022-07-30T13:47:16.951Z,29.00
2022-07-30T13:49:50.975Z,28.70
2022-07-30T13:52:20.820Z,28.50
2022-07-30T13:54:52.868Z,28.20
2022-07-30T13:57:22.808Z,28.50
2022-07-30T13:59:52.761Z,28.10
2022-07-30T14:02:22.710Z,28.70
2022-07-30T14:04:55.136Z,28.50
2022-07-30T14:07:25.186Z,28.60
2022-07-30T14:09:55.029Z,28.80
2022-07-30T14:12:24.879Z,28.60
2022-07-30T14:14:54.832Z,28.90
2022-07-30T14:17:24.897Z,28.70
2022-07-30T14:19:57.334Z,28.10
2022-07-30T14:22:27.549Z,28.90
2022-07-30T14:24:57.427Z,29.30
2022-07-30T14:27:27.244Z,29.20
2022-07-30T14:29:57.157Z,29.60
2022-07-30T14:32:32.554Z,29.80
2022-07-30T14:35:05.300Z,29.30
2022-07-30T14:37:35.217Z,29.20
2022-07-30T14:40:05.293Z,29.20
2022-07-30T14:42:36.164Z,28.70
2022-07-30T14:45:06.481Z,28.20
2022-07-30T14:47:36.395Z,28.40
2022-07-30T14:50:10.136Z,28.60
2022-07-30T14:52:41.540Z,28.30
2022-07-30T14:55:12.687Z,28.30
2022-07-30T14:57:46.937Z,28.50
2022-07-30T15:00:18.018Z,28.80
2022-07-30T15:02:49.731Z,28.90
2022-07-30T15:05:22.188Z,28.40
2022-07-30T15:07:52.246Z,28.90
2022-07-30T15:10:22.360Z,28.80
2022-07-30T15:12:53.226Z,28.70
2022-07-30T15:15:23.373Z,28.70
2022-07-30T15:17:55.018Z,28.80
2022-07-30T15:20:27.532Z,29.10
2022-07-30T15:22:57.657Z,28.50
2022-07-30T15:25:27.770Z,28.80
2022-07-30T15:27:57.660Z,28.60
2022-07-30T15:30:27.495Z,28.80
2022-07-30T15:32:57.457Z,29.20
2022-07-30T15:35:29.923Z,28.80
2022-07-30T15:37:59.765Z,28.60
2022-07-30T15:40:29.854Z,28.50
2022-07-30T15:42:59.710Z,28.70
2022-07-30T15:45:50.054Z,28.50
2022-07-30T15:48:25.007Z,28.30
2022-07-30T15:51:03.818Z,28.00
2022-07-30T15:53:36.203Z,28.00
2022-07-30T15:56:06.205Z,27.90
2022-07-30T15:58:40.365Z,28.00
2022-07-30T16:01:15.384Z,27.60
2022-07-30T16:03:45.280Z,27.80
2022-07-30T16:06:17.725Z,27.70
2022-07-30T16:08:47.607Z,28.10
2022-07-30T16:11:17.480Z,28.40
2022-07-30T16:13:50.243Z,28.00
2022-07-30T16:16:22.399Z,27.90
2022-07-30T16:18:54.981Z,27.70
2022-07-30T16:21:27.426Z,27.90
2022-07-30T16:23:57.318Z,27.80
2022-07-30T16:26:27.285Z,28.00
2022-07-30T16:29:02.949Z,28.00
2022-07-30T16:31:32.824Z,28.30
2022-07-30T16:34:02.730Z,28.40
2022-07-30T16:36:35.310Z,28.50
2022-07-30T16:39:05.375Z,28.30
2022-07-30T16:41:35.481Z,28.50
2022-07-30T16:44:08.000Z,28.40
2022-07-30T16:46:38.737Z,28.40
2022-07-30T16:49:09.188Z,28.30
2022-07-30T16:51:42.824Z,28.10
2022-07-30T16:54:13.255Z,28.30
2022-07-30T16:56:43.113Z,28.20
2022-07-30T16:59:14.388Z,27.70
2022-07-30T17:01:44.386Z,27.70
2022-07-30T17:04:14.404Z,27.80
2022-07-30T17:06:47.143Z,28.00
2022-07-30T17:09:17.022Z,28.30
2022-07-30T17:12:02.162Z,28.50
2022-07-30T17:14:33.588Z,28.70
2022-07-30T17:17:03.705Z,28.40
2022-07-30T17:19:33.502Z,28.60
2022-07-30T17:22:06.313Z,28.60
2022-07-30T17:24:36.319Z,28.40
2022-07-30T17:27:06.207Z,28.10
2022-07-30T17:29:48.359Z,28.20
2022-07-30T17:32:20.710Z,27.70
2022-07-30T17:34:51.604Z,27.80
2022-07-30T17:37:26.089Z,27.60
2022-07-30T17:40:27.422Z,27.60
2022-07-30T17:42:46.529Z,27.50
2022-07-30T17:45:16.863Z,27.30
2022-07-30T17:47:46.933Z,27.20
2022-07-30T17:50:19.630Z,27.10
2022-07-30T17:52:52.319Z,27.00
2022-07-30T17:55:22.324Z,26.80
2022-07-30T17:57:52.172Z,26.80
2022-07-30T18:00:22.780Z,26.80
2022-07-30T18:02:52.774Z,26.60
2022-07-30T18:05:22.741Z,26.70
2022-07-30T18:07:55.287Z,26.70
2022-07-30T18:10:25.807Z,26.60
2022-07-30T18:12:56.248Z,26.60
2022-07-30T18:15:29.659Z,26.50
2022-07-30T18:18:15.076Z,26.50
2022-07-30T18:20:48.379Z,26.40
2022-07-30T18:23:24.157Z,26.30
2022-07-30T18:26:03.882Z,26.40
2022-07-30T18:28:33.757Z,26.30
2022-07-30T18:31:03.537Z,26.30
2022-07-30T18:33:33.409Z,26.20
2022-07-30T18:36:06.629Z,26.20
2022-07-30T18:38:39.130Z,26.00
2022-07-30T18:41:09.054Z,25.90
2022-07-30T18:43:48.200Z,25.80
2022-07-30T18:46:25.944Z,25.80
2022-07-30T18:48:55.831Z,25.60
2022-07-30T18:51:27.050Z,25.50
2022-07-30T18:53:59.622Z,25.50
2022-07-30T18:56:31.061Z,25.40
2022-07-30T18:59:03.722Z,25.30
2022-07-30T19:01:33.681Z,25.30
2022-07-30T19:04:06.030Z,25.20
2022-07-30T19:06:39.992Z,25.10
2022-07-30T19:09:17.683Z,25.00
2022-07-30T19:11:50.978Z,24.90
2022-07-30T19:14:20.856Z,24.80
2022-07-30T19:16:53.600Z,24.80
2022-07-30T19:19:29.249Z,24.70
2022-07-30T19:21:59.768Z,24.70
2022-07-30T19:24:32.577Z,24.60
2022-07-30T19:27:04.183Z,24.60
2022-07-30T19:29:34.238Z,24.60
2022-07-30T19:32:07.833Z,24.50
2022-07-30T19:34:37.770Z,24.50
2022-07-30T19:37:07.692Z,24.40
2022-07-30T19:42:35.494Z,24.40
2022-07-30T19:45:13.011Z,24.40
2022-07-30T19:47:43.374Z,24.30
2022-07-30T19:50:16.722Z,24.30
2022-07-30T19:52:51.548Z,24.20
2022-07-30T19:55:37.272Z,24.30
2022-07-30T19:58:20.780Z,24.20
2022-07-30T20:00:52.129Z,24.20
2022-07-30T20:03:25.626Z,24.10
2022-07-30T20:05:59.303Z,24.10
2022-07-30T20:08:30.243Z,24.00
2022-07-30T20:11:02.669Z,24.00
2022-07-30T20:13:44.625Z,24.00
2022-07-30T20:16:16.368Z,23.90
2022-07-30T20:18:48.128Z,23.90
2022-07-30T20:21:20.371Z,23.80
2022-07-30T20:23:50.278Z,23.80
2022-07-30T20:26:28.996Z,23.70
2022-07-30T20:29:01.804Z,23.70
2022-07-30T20:31:31.613Z,23.60
2022-07-30T20:34:03.204Z,23.60
2022-07-30T20:36:34.996Z,23.60
2022-07-30T20:39:05.022Z,23.50
2022-07-30T20:41:37.990Z,23.50
2022-07-30T20:44:10.197Z,23.40
2022-07-30T20:46:43.264Z,23.30
2022-07-30T20:49:16.565Z,23.20
2022-07-30T20:51:50.380Z,23.20
2022-07-30T20:54:20.323Z,23.10
2022-07-30T20:56:53.334Z,23.00
2022-07-30T20:59:23.856Z,23.00
2022-07-30T21:01:53.754Z,22.90
2022-07-30T21:04:25.931Z,22.90
2022-07-30T21:06:56.909Z,22.90
2022-07-30T21:09:29.016Z,22.80
2022-07-30T21:12:33.206Z,22.80
2022-07-30T21:15:03.414Z,22.70
2022-07-30T21:17:45.672Z,22.70
2022-07-30T21:20:35.642Z,22.70
2022-07-30T21:23:11.395Z,22.60
2022-07-30T21:26:02.224Z,22.70
2022-07-30T21:28:36.194Z,22.60
2022-07-30T21:31:06.934Z,22.60
2022-07-30T21:33:38.444Z,22.60
2022-07-30T21:36:10.302Z,22.50
2022-07-30T21:38:42.257Z,22.60
2022-07-30T21:41:16.489Z,22.60
2022-07-30T21:43:49.983Z,22.50
2022-07-30T21:46:24.998Z,22.60
2022-07-30T21:48:56.934Z,22.60
2022-07-30T21:51:29.240Z,22.50
2022-07-30T21:54:02.047Z,22.60
2022-07-30T21:56:41.583Z,22.60
2022-07-30T21:59:14.249Z,22.50
2022-07-30T22:01:47.616Z,22.50
2022-07-30T22:04:17.927Z,22.40
2022-07-30T22:06:47.844Z,22.40
2022-07-30T22:09:33.198Z,22.30
2022-07-30T22:12:09.730Z,22.20
2022-07-30T22:14:43.162Z,22.20
2022-07-30T22:17:22.847Z,22.10
2022-07-30T22:19:54.606Z,22.00
2022-07-30T22:22:27.650Z,21.90
2022-07-30T22:25:00.251Z,21.80
2022-07-30T22:27:40.307Z,21.80
2022-07-30T22:30:24.129Z,21.80
2022-07-30T22:32:56.627Z,21.70
2022-07-30T22:35:32.207Z,21.60
2022-07-30T22:38:04.237Z,21.60
2022-07-30T22:40:34.462Z,21.70
2022-07-30T22:43:07.747Z,21.70
2022-07-30T22:45:58.918Z,21.70
2022-07-30T22:48:30.238Z,21.70
2022-07-30T22:51:02.680Z,21.80
2022-07-30T22:54:10.947Z,21.70
2022-07-30T22:56:25.320Z,21.70
2022-07-30T22:58:55.384Z,21.70
2022-07-30T23:01:27.806Z,21.60
2022-07-30T23:03:57.650Z,21.60
2022-07-30T23:06:31.287Z,21.60
2022-07-30T23:09:01.331Z,21.60
2022-07-30T23:11:36.963Z,21.50
2022-07-30T23:12:16.773Z,24.40
2022-07-30T23:14:07.403Z,21.40
2022-07-30T23:16:40.469Z,21.20
2022-07-30T23:19:10.441Z,21.00
2022-07-30T23:21:48.626Z,20.90
2022-07-30T23:24:19.046Z,20.80
2022-07-30T23:26:50.478Z,20.80
2022-07-30T23:29:20.431Z,20.70
2022-07-30T23:31:52.920Z,20.60
2022-07-30T23:34:22.849Z,20.60
2022-07-30T23:36:52.709Z,20.60
2022-07-30T23:39:23.206Z,20.50
2022-07-30T23:41:53.031Z,20.40
2022-07-30T23:44:22.917Z,20.30
2022-07-30T23:46:55.317Z,20.40
2022-07-30T23:49:25.307Z,20.30
2022-07-30T23:51:55.240Z,20.20
2022-07-30T23:54:25.175Z,20.10
2022-07-30T23:56:56.263Z,20.00
2022-07-30T23:59:40.350Z,19.80
